createdAt,value
2023-04-07T00:00:29.889Z,37.77
2023-04-07T00:02:57.189Z,37.60
2023-04-07T00:05:24.413Z,37.73
2023-04-07T00:07:56.497Z,37.68
2023-04-07T00:10:25.610Z,37.70
2023-04-07T00:12:53.424Z,38.18
2023-04-07T00:15:20.552Z,38.08
2023-04-07T00:17:47.688Z,38.38
2023-04-07T00:20:15.071Z,38.04
2023-04-07T00:22:42.325Z,38.23
2023-04-07T00:25:09.852Z,38.31
2023-04-07T00:27:37.230Z,38.46
2023-04-07T00:30:05.101Z,38.62
2023-04-07T00:32:33.340Z,38.56
2023-04-07T00:35:02.611Z,38.74
2023-04-07T00:37:29.855Z,38.44
2023-04-07T00:39:56.993Z,38.22
2023-04-07T00:42:24.079Z,38.38
2023-04-07T00:44:51.310Z,38.48
2023-04-07T00:47:18.550Z,38.79
2023-04-07T00:49:46.111Z,38.53
2023-04-07T00:52:14.433Z,38.79
2023-04-07T00:54:42.750Z,38.95
2023-04-07T00:57:10.281Z,39.15
2023-04-07T00:59:38.742Z,39.01
2023-04-07T01:02:18.108Z,38.67
2023-04-07T01:05:09.488Z,38.74
2023-04-07T01:08:00.933Z,38.31
2023-04-07T01:10:41.875Z,38.01
2023-04-07T01:13:24.168Z,38.06
2023-04-07T01:15:55.750Z,38.21
2023-04-07T01:18:31.990Z,38.47
2023-04-07T01:21:11.302Z,38.42
2023-04-07T01:24:18.596Z,38.32
2023-04-07T01:26:49.344Z,38.64
2023-04-07T01:29:42.549Z,38.82
2023-04-07T01:32:12.449Z,38.86
2023-04-07T01:34:42.062Z,38.92
2023-04-07T01:37:09.833Z,38.72
2023-04-07T01:39:38.983Z,38.64
2023-04-07T01:42:08.269Z,39.00
2023-04-07T01:44:37.013Z,38.85
2023-04-07T01:47:06.257Z,38.96
2023-04-07T01:49:36.061Z,39.00
2023-04-07T01:52:04.872Z,38.84
2023-04-07T01:54:32.925Z,38.79
2023-04-07T01:57:00.535Z,38.65
2023-04-07T01:59:28.612Z,38.33
2023-04-07T02:01:56.367Z,39.20
2023-04-07T02:04:51.866Z,39.29
2023-04-07T02:07:44.331Z,39.62
2023-04-07T02:10:15.311Z,39.50
2023-04-07T02:12:46.131Z,39.70
2023-04-07T02:15:15.421Z,39.46
2023-04-07T02:17:47.730Z,39.52
2023-04-07T02:20:17.797Z,39.39
2023-04-07T02:22:45.434Z,39.54
2023-04-07T02:25:26.175Z,39.70
2023-04-07T02:27:54.966Z,39.66
2023-04-07T02:30:23.019Z,39.80
2023-04-07T02:32:50.686Z,39.59
2023-04-07T02:35:18.567Z,39.96
2023-04-07T02:37:47.072Z,39.82
2023-04-07T02:40:15.051Z,39.87
2023-04-07T02:42:43.277Z,40.20
2023-04-07T02:45:11.427Z,40.04
2023-04-07T02:47:40.876Z,39.73
2023-04-07T02:50:08.903Z,39.83
2023-04-07T02:52:36.448Z,39.81
2023-04-07T02:55:04.290Z,39.61
2023-04-07T02:57:31.900Z,40.02
2023-04-07T02:59:59.442Z,40.03
2023-04-07T03:02:27.103Z,40.18
2023-04-07T03:04:54.892Z,40.18
2023-04-07T03:07:22.372Z,39.97
2023-04-07T03:09:49.941Z,40.15
2023-04-07T03:12:17.239Z,40.07
2023-04-07T03:14:44.385Z,39.60
2023-04-07T03:17:11.537Z,39.62
2023-04-07T03:19:38.704Z,39.81
2023-04-07T03:22:06.207Z,40.08
2023-04-07T03:24:33.682Z,40.34
2023-04-07T03:27:01.168Z,40.61
2023-04-07T03:29:28.895Z,40.63
2023-04-07T03:31:56.446Z,40.71
2023-04-07T03:34:24.252Z,40.97
2023-04-07T03:36:51.783Z,40.96
2023-04-07T03:39:19.332Z,40.57
2023-04-07T03:41:46.816Z,40.46
2023-04-07T03:44:18.418Z,40.68
2023-04-07T03:46:49.829Z,40.82
2023-04-07T03:49:17.511Z,40.99
2023-04-07T03:51:48.720Z,40.92
2023-04-07T03:54:16.360Z,41.39
2023-04-07T03:56:43.828Z,41.01
2023-04-07T03:59:11.288Z,40.62
2023-04-07T04:01:38.926Z,41.04
2023-04-07T04:04:06.616Z,40.97
2023-04-07T04:06:34.223Z,41.15
2023-04-07T04:09:01.788Z,41.13
2023-04-07T04:11:29.369Z,41.29
2023-04-07T04:13:58.267Z,40.98
2023-04-07T04:16:25.951Z,41.29
2023-04-07T04:18:53.498Z,41.72
2023-04-07T04:21:21.000Z,41.80
2023-04-07T04:23:48.482Z,41.03
2023-04-07T04:26:16.007Z,41.10
2023-04-07T04:28:43.501Z,41.77
2023-04-07T04:31:11.307Z,41.60
2023-04-07T04:33:38.981Z,41.68
2023-04-07T04:36:06.877Z,41.96
2023-04-07T04:38:34.320Z,41.94
2023-04-07T04:41:01.909Z,42.20
2023-04-07T04:43:29.453Z,42.36
2023-04-07T04:45:57.224Z,42.09
2023-04-07T04:48:24.728Z,42.08
2023-04-07T04:50:52.252Z,42.24
2023-04-07T04:53:19.755Z,41.92
2023-04-07T04:55:47.266Z,42.26
2023-04-07T04:58:15.235Z,42.51
2023-04-07T05:00:42.784Z,42.23
2023-04-07T05:03:10.533Z,42.47
2023-04-07T05:05:38.242Z,42.29
2023-04-07T05:08:06.066Z,42.21
2023-04-07T05:10:33.740Z,42.79
2023-04-07T05:13:01.765Z,42.75
2023-04-07T05:15:29.980Z,42.53
2023-04-07T05:17:57.722Z,42.56
2023-04-07T05:20:25.318Z,42.40
2023-04-07T05:22:52.855Z,42.50
2023-04-07T05:25:20.388Z,42.41
2023-04-07T05:27:48.112Z,42.46
2023-04-07T05:30:15.855Z,42.68
2023-04-07T05:32:43.419Z,43.03
2023-04-07T05:35:11.155Z,42.70
2023-04-07T05:37:38.852Z,42.60
2023-04-07T05:40:07.117Z,42.87
2023-04-07T05:42:37.546Z,42.44
2023-04-07T05:45:05.999Z,42.19
2023-04-07T05:47:33.779Z,42.39
2023-04-07T05:50:01.391Z,42.12
2023-04-07T05:52:29.166Z,42.50
2023-04-07T05:54:57.109Z,41.86
2023-04-07T05:57:24.788Z,42.24
2023-04-07T05:59:52.569Z,42.28
2023-04-07T06:02:20.334Z,41.71
2023-04-07T06:04:48.185Z,41.55
2023-04-07T06:07:15.727Z,41.19
2023-04-07T06:09:43.234Z,40.79
2023-04-07T06:12:11.199Z,39.96
2023-04-07T06:14:39.189Z,40.44
2023-04-07T06:17:06.987Z,39.85
2023-04-07T06:19:34.920Z,40.18
2023-04-07T06:22:02.480Z,39.40
2023-04-07T06:24:30.400Z,39.57
2023-04-07T06:26:58.202Z,39.55
2023-04-07T06:29:25.803Z,38.95
2023-04-07T06:31:53.616Z,39.18
2023-04-07T06:34:21.613Z,38.99
2023-04-07T06:36:49.329Z,39.58
2023-04-07T06:39:16.647Z,39.23
2023-04-07T06:41:43.945Z,39.28
2023-04-07T06:44:11.273Z,38.95
2023-04-07T06:46:38.631Z,38.84
2023-04-07T06:49:05.999Z,37.86
2023-04-07T06:51:33.866Z,38.12
2023-04-07T06:54:01.069Z,38.27
2023-04-07T06:56:29.101Z,37.94
2023-04-07T06:58:56.778Z,37.81
2023-04-07T07:01:24.002Z,36.98
2023-04-07T07:03:51.865Z,36.93
2023-04-07T07:06:20.324Z,36.57
2023-04-07T07:08:47.491Z,35.27
2023-04-07T07:11:14.647Z,35.06
2023-04-07T07:13:41.754Z,34.90
2023-04-07T07:16:08.962Z,34.47
2023-04-07T07:18:36.698Z,32.79
2023-04-07T07:21:04.148Z,32.97
2023-04-07T07:23:31.597Z,32.96
2023-04-07T07:25:58.817Z,32.65
2023-04-07T07:28:26.072Z,32.76
2023-04-07T07:30:53.263Z,32.75
2023-04-07T07:33:20.470Z,32.68
2023-04-07T07:35:47.665Z,32.20
2023-04-07T07:38:14.928Z,31.86
2023-04-07T07:40:42.204Z,31.53
2023-04-07T07:43:09.422Z,31.54
2023-04-07T07:45:36.623Z,31.43
2023-04-07T07:48:04.064Z,30.91
2023-04-07T07:50:31.795Z,31.19
2023-04-07T07:52:58.974Z,30.91
2023-04-07T07:55:26.151Z,30.53
2023-04-07T07:57:53.410Z,30.68
2023-04-07T08:00:20.811Z,30.47
2023-04-07T08:02:48.020Z,30.18
2023-04-07T08:05:15.452Z,29.78
2023-04-07T08:07:44.261Z,30.15
2023-04-07T08:10:11.510Z,30.21
2023-04-07T08:12:38.882Z,29.89
2023-04-07T08:15:07.230Z,29.17
2023-04-07T08:17:34.615Z,29.49
2023-04-07T08:20:01.860Z,29.09
2023-04-07T08:22:29.350Z,29.32
2023-04-07T08:24:56.750Z,29.38
2023-04-07T08:27:23.923Z,29.35
2023-04-07T08:30:03.107Z,28.58
2023-04-07T08:32:42.256Z,29.12
2023-04-07T08:35:10.397Z,29.44
2023-04-07T08:37:39.232Z,28.84
2023-04-07T08:40:07.430Z,29.27
2023-04-07T08:42:35.749Z,29.44
2023-04-07T08:45:06.753Z,29.49
2023-04-07T08:47:36.601Z,29.65
2023-04-07T08:50:10.593Z,29.37
2023-04-07T08:52:55.226Z,29.38
2023-04-07T08:55:23.220Z,28.99
2023-04-07T08:57:51.622Z,29.45
2023-04-07T09:00:20.045Z,29.56
2023-04-07T09:02:48.110Z,29.33
2023-04-07T09:05:15.366Z,29.51
2023-04-07T09:07:43.087Z,29.08
2023-04-07T09:10:10.908Z,28.77
2023-04-07T09:12:38.788Z,28.94
2023-04-07T09:15:08.152Z,29.19
2023-04-07T09:17:35.906Z,29.34
2023-04-07T09:20:03.965Z,29.28
2023-04-07T09:22:43.551Z,29.06
2023-04-07T09:25:23.359Z,29.21
2023-04-07T09:28:05.122Z,29.18
2023-04-07T09:30:33.928Z,29.66
2023-04-07T09:33:02.416Z,29.60
2023-04-07T09:35:29.784Z,29.52
2023-04-07T09:38:07.824Z,29.25
2023-04-07T09:40:36.714Z,29.47
2023-04-07T09:43:06.303Z,29.62
2023-04-07T09:45:36.166Z,29.60
2023-04-07T09:48:28.055Z,29.37
2023-04-07T09:51:11.965Z,29.25
2023-04-07T09:53:51.409Z,29.05
2023-04-07T09:56:21.668Z,29.61
2023-04-07T09:58:50.865Z,29.39
2023-04-07T10:01:18.882Z,29.54
2023-04-07T10:03:49.195Z,29.22
2023-04-07T10:06:17.394Z,28.87
2023-04-07T10:08:45.381Z,29.04
2023-04-07T10:11:16.177Z,28.52
2023-04-07T10:13:43.966Z,28.45
2023-04-07T10:16:11.386Z,27.84
2023-04-07T10:18:41.155Z,28.01
2023-04-07T10:21:10.190Z,27.93
2023-04-07T10:24:04.738Z,27.43
2023-04-07T10:26:37.278Z,27.19
2023-04-07T10:29:11.699Z,26.63
2023-04-07T10:31:39.916Z,26.52
2023-04-07T10:34:07.500Z,26.10
2023-04-07T10:36:34.718Z,25.80
2023-04-07T10:39:07.887Z,25.13
2023-04-07T10:41:40.872Z,24.45
2023-04-07T10:44:10.214Z,23.85
2023-04-07T10:47:04.154Z,22.35
2023-04-07T10:49:32.777Z,22.11
2023-04-07T10:52:12.031Z,21.92
2023-04-07T10:54:40.651Z,21.30
2023-04-07T10:57:17.749Z,20.91
2023-04-07T11:00:09.726Z,20.41
2023-04-07T11:02:40.241Z,21.05
2023-04-07T11:05:07.998Z,20.57
2023-04-07T11:07:51.127Z,19.96
2023-04-07T11:10:18.544Z,20.78
2023-04-07T11:13:06.557Z,20.13
2023-04-07T11:15:39.302Z,20.43
2023-04-07T11:18:16.127Z,20.75
2023-04-07T11:20:52.435Z,20.67
2023-04-07T11:23:22.876Z,20.65
2023-04-07T11:25:53.019Z,20.62
2023-04-07T11:28:20.305Z,20.86
2023-04-07T11:30:53.023Z,21.66
2023-04-07T11:33:26.859Z,21.25
2023-04-07T11:36:00.541Z,20.46
2023-04-07T11:38:39.168Z,20.33
2023-04-07T11:41:15.754Z,21.33
2023-04-07T11:43:43.423Z,20.47
2023-04-07T11:46:18.873Z,19.64
2023-04-07T11:48:46.499Z,19.94
2023-04-07T11:51:23.324Z,20.23
2023-04-07T11:53:57.498Z,19.89
2023-04-07T11:56:24.894Z,19.75
2023-04-07T11:58:54.713Z,19.64
2023-04-07T12:01:23.486Z,20.73
2023-04-07T12:03:59.770Z,20.49
2023-04-07T12:06:35.391Z,21.43
2023-04-07T12:09:04.260Z,21.60
2023-04-07T12:11:50.453Z,21.71
2023-04-07T12:14:17.613Z,22.27
2023-04-07T12:16:45.000Z,22.01
2023-04-07T12:19:16.484Z,22.64
2023-04-07T12:21:43.785Z,22.88
2023-04-07T12:24:10.960Z,23.19
2023-04-07T12:26:38.260Z,24.24
2023-04-07T12:29:05.649Z,24.36
2023-04-07T12:31:33.515Z,23.70
2023-04-07T12:34:01.213Z,24.04
2023-04-07T12:36:28.411Z,23.92
2023-04-07T12:38:56.841Z,24.25
2023-04-07T12:41:25.203Z,24.49
2023-04-07T12:43:52.835Z,24.37
2023-04-07T12:46:20.420Z,24.60
2023-04-07T12:48:47.917Z,24.52
2023-04-07T12:51:15.653Z,24.63
2023-04-07T12:53:43.002Z,24.35
2023-04-07T12:56:10.630Z,24.95
2023-04-07T12:58:37.860Z,25.24
2023-04-07T13:01:05.261Z,24.94
2023-04-07T13:03:32.944Z,25.36
2023-04-07T13:06:00.225Z,25.33
2023-04-07T13:08:30.747Z,25.90
2023-04-07T13:10:58.004Z,25.40
2023-04-07T13:13:25.389Z,26.20
2023-04-07T13:15:52.544Z,25.95
2023-04-07T13:18:19.789Z,26.11
2023-04-07T13:20:54.961Z,26.80
2023-04-07T13:23:42.754Z,26.24
2023-04-07T13:26:11.638Z,26.28
2023-04-07T13:28:38.996Z,25.94
2023-04-07T13:31:06.443Z,26.76
2023-04-07T13:33:35.097Z,26.75
2023-04-07T13:36:02.409Z,26.53
2023-04-07T13:38:29.526Z,26.90
2023-04-07T13:40:56.697Z,26.55
2023-04-07T13:43:23.897Z,26.61
2023-04-07T13:45:51.116Z,26.54
2023-04-07T13:48:18.372Z,26.65
2023-04-07T13:50:45.551Z,26.68
2023-04-07T13:53:12.988Z,27.03
2023-04-07T13:55:40.449Z,27.16
2023-04-07T13:58:07.631Z,27.08
2023-04-07T14:00:34.817Z,26.99
2023-04-07T14:03:02.144Z,26.80
2023-04-07T14:05:29.499Z,26.76
2023-04-07T14:07:56.679Z,27.28
2023-04-07T14:10:24.000Z,27.64
2023-04-07T14:12:51.274Z,27.90
2023-04-07T14:15:18.710Z,28.06
2023-04-07T14:17:46.004Z,28.30
2023-04-07T14:20:13.343Z,28.30
2023-04-07T14:22:41.865Z,28.47
2023-04-07T14:25:09.228Z,29.16
2023-04-07T14:27:36.642Z,29.14
2023-04-07T14:30:04.464Z,29.24
2023-04-07T14:32:36.228Z,29.98
2023-04-07T14:35:03.462Z,30.49
2023-04-07T14:37:30.663Z,29.59
2023-04-07T14:42:27.986Z,30.06
2023-04-07T14:44:55.533Z,29.90
2023-04-07T14:47:22.705Z,30.08
2023-04-07T14:49:51.848Z,29.88
2023-04-07T14:52:23.010Z,29.84
2023-04-07T14:54:50.544Z,30.36
2023-04-07T14:57:20.346Z,30.43
2023-04-07T14:59:47.905Z,30.41
2023-04-07T15:02:20.912Z,30.95
2023-04-07T15:04:48.284Z,30.87
2023-04-07T15:07:15.616Z,30.80
2023-04-07T15:09:43.063Z,30.96
2023-04-07T15:12:10.382Z,31.01
2023-04-07T15:14:37.853Z,31.55
2023-04-07T15:17:05.050Z,32.03
2023-04-07T15:19:32.259Z,31.71
2023-04-07T15:21:59.452Z,31.89
2023-04-07T15:24:26.669Z,31.82
2023-04-07T15:26:53.881Z,31.89
2023-04-07T15:29:21.139Z,31.82
2023-04-07T15:31:48.863Z,31.82
2023-04-07T15:34:16.257Z,31.78
2023-04-07T15:36:43.407Z,31.64
2023-04-07T15:39:10.605Z,31.98
2023-04-07T15:41:38.834Z,31.69
2023-04-07T15:44:06.308Z,32.08
2023-04-07T15:46:33.532Z,31.98
2023-04-07T15:49:02.189Z,32.08
2023-04-07T15:51:30.143Z,32.11
2023-04-07T15:53:57.602Z,32.09
2023-04-07T15:56:25.006Z,32.17
2023-04-07T15:58:52.534Z,32.20
2023-04-07T16:01:20.879Z,32.22
2023-04-07T16:03:48.548Z,32.46
2023-04-07T16:06:16.169Z,32.91
2023-04-07T16:08:43.271Z,33.42
2023-04-07T16:11:10.699Z,32.83
2023-04-07T16:13:37.999Z,32.75
2023-04-07T16:16:05.706Z,33.64
2023-04-07T16:18:32.994Z,33.33
2023-04-07T16:21:01.368Z,33.36
2023-04-07T16:23:30.340Z,33.87
2023-04-07T16:25:57.550Z,34.17
2023-04-07T16:28:24.733Z,34.65
2023-04-07T16:30:52.178Z,35.31
2023-04-07T16:33:22.847Z,36.00
2023-04-07T16:35:51.240Z,36.23
2023-04-07T16:38:32.445Z,37.00
2023-04-07T16:41:04.901Z,37.79
2023-04-07T16:43:32.399Z,38.25
2023-04-07T16:45:59.637Z,39.08
2023-04-07T16:48:26.986Z,39.88
2023-04-07T16:50:54.162Z,40.79
2023-04-07T16:53:21.790Z,41.35
2023-04-07T16:55:49.277Z,41.66
2023-04-07T16:58:21.665Z,41.83
2023-04-07T17:00:51.216Z,41.96
2023-04-07T17:03:18.411Z,42.54
2023-04-07T17:05:45.694Z,42.25
2023-04-07T17:08:12.882Z,42.24
2023-04-07T17:10:40.341Z,42.88
2023-04-07T17:13:16.470Z,42.44
2023-04-07T17:15:43.867Z,42.50
2023-04-07T17:18:11.630Z,42.74
2023-04-07T17:20:40.503Z,42.60
2023-04-07T17:23:08.031Z,42.58
2023-04-07T17:25:35.293Z,43.05
2023-04-07T17:28:02.966Z,42.80
2023-04-07T17:30:30.167Z,42.68
2023-04-07T17:32:57.403Z,42.75
2023-04-07T17:35:24.919Z,42.87
2023-04-07T17:37:52.580Z,43.02
2023-04-07T17:40:19.906Z,43.38
2023-04-07T17:42:48.798Z,43.65
2023-04-07T17:45:16.696Z,43.82
2023-04-07T17:47:43.917Z,44.28
2023-04-07T17:50:11.273Z,44.53
2023-04-07T17:52:38.427Z,44.77
2023-04-07T17:55:06.537Z,44.92
2023-04-07T17:57:34.048Z,45.86
2023-04-07T18:00:08.153Z,46.41
2023-04-07T18:02:35.736Z,46.82
2023-04-07T18:05:06.588Z,47.24
2023-04-07T18:07:36.119Z,47.50
2023-04-07T18:10:03.585Z,47.64
2023-04-07T18:12:30.963Z,48.14
2023-04-07T18:14:58.103Z,48.13
2023-04-07T18:17:25.352Z,48.10
2023-04-07T18:19:52.558Z,48.38
2023-04-07T18:22:19.781Z,48.24
2023-04-07T18:24:47.121Z,48.29
2023-04-07T18:27:14.285Z,48.61
2023-04-07T18:29:41.420Z,48.47
2023-04-07T18:32:08.846Z,48.42
2023-04-07T18:34:36.123Z,48.27
2023-04-07T18:37:03.288Z,48.42
2023-04-07T18:39:30.488Z,48.42
2023-04-07T18:41:57.730Z,48.26
2023-04-07T18:44:26.366Z,48.46
2023-04-07T18:46:53.752Z,48.38
2023-04-07T18:49:20.991Z,48.14
2023-04-07T18:51:48.233Z,48.17
2023-04-07T18:54:15.446Z,48.16
2023-04-07T18:56:42.730Z,48.16
2023-04-07T18:59:10.610Z,48.08
2023-04-07T19:01:37.814Z,48.33
2023-04-07T19:04:05.326Z,48.10
2023-04-07T19:06:32.553Z,48.13
2023-04-07T19:09:00.878Z,48.18
2023-04-07T19:11:28.182Z,48.35
2023-04-07T19:13:55.573Z,48.51
2023-04-07T19:16:24.020Z,48.18
2023-04-07T19:18:51.752Z,48.09
2023-04-07T19:21:19.448Z,48.04
2023-04-07T19:23:46.862Z,48.15
2023-04-07T19:26:14.457Z,47.91
2023-04-07T19:28:41.739Z,47.93
2023-04-07T19:31:09.465Z,48.07
2023-04-07T19:33:37.327Z,47.82
2023-04-07T19:36:05.326Z,48.03
2023-04-07T19:38:32.546Z,47.71
2023-04-07T19:41:00.116Z,48.21
2023-04-07T19:43:27.648Z,47.88
2023-04-07T19:45:54.863Z,47.73
2023-04-07T19:48:22.486Z,47.83
2023-04-07T19:50:50.068Z,47.97
2023-04-07T19:53:17.557Z,47.81
2023-04-07T19:55:48.324Z,47.84
2023-04-07T19:58:16.023Z,47.53
2023-04-07T20:00:43.453Z,47.00
2023-04-07T20:03:11.276Z,47.24
2023-04-07T20:05:39.085Z,47.37
2023-04-07T20:08:06.233Z,47.09
2023-04-07T20:10:33.414Z,47.36
2023-04-07T20:13:00.552Z,47.03
2023-04-07T20:15:27.868Z,47.22
2023-04-07T20:17:55.023Z,47.52
2023-04-07T20:20:22.411Z,47.42
2023-04-07T20:22:49.529Z,47.54
2023-04-07T20:25:16.944Z,47.62
2023-04-07T20:27:44.089Z,47.50
2023-04-07T20:30:11.699Z,47.62
2023-04-07T20:32:39.002Z,47.91
2023-04-07T20:35:06.989Z,47.62
2023-04-07T20:37:34.181Z,48.16
2023-04-07T20:40:01.619Z,48.08
2023-04-07T20:42:28.995Z,48.08
2023-04-07T20:44:56.646Z,48.16
2023-04-07T20:47:23.875Z,48.10
2023-04-07T20:49:50.992Z,48.43
2023-04-07T20:52:18.143Z,48.30
2023-04-07T20:54:45.365Z,48.51
2023-04-07T20:57:12.802Z,48.42
2023-04-07T20:59:40.008Z,48.27
2023-04-07T21:02:07.575Z,48.27
2023-04-07T21:04:34.811Z,48.52
2023-04-07T21:07:02.026Z,48.31
2023-04-07T21:09:29.155Z,48.47
2023-04-07T21:11:56.446Z,48.46
2023-04-07T21:14:23.644Z,48.69
2023-04-07T21:16:50.831Z,48.65
2023-04-07T21:19:18.023Z,48.83
2023-04-07T21:21:45.255Z,49.00
2023-04-07T21:24:12.438Z,48.77
2023-04-07T21:26:39.513Z,48.98
2023-04-07T21:29:06.664Z,49.03
2023-04-07T21:31:33.893Z,49.17
2023-04-07T21:34:01.102Z,48.57
2023-04-07T21:36:28.281Z,48.39
2023-04-07T21:38:55.548Z,48.36
2023-04-07T21:41:23.301Z,48.40
2023-04-07T21:43:50.582Z,48.09
2023-04-07T21:46:17.867Z,48.34
2023-04-07T21:48:45.190Z,48.64
2023-04-07T21:51:12.691Z,48.72
2023-04-07T21:53:39.887Z,48.64
2023-04-07T21:56:07.692Z,48.73
2023-04-07T21:58:35.211Z,48.94
2023-04-07T22:01:02.586Z,49.25
2023-04-07T22:03:30.102Z,49.35
2023-04-07T22:06:00.585Z,49.39
2023-04-07T22:08:27.783Z,49.26
2023-04-07T22:10:55.244Z,49.45
2023-04-07T22:13:22.608Z,49.57
2023-04-07T22:15:50.246Z,49.55
2023-04-07T22:18:17.456Z,49.22
2023-04-07T22:20:45.182Z,49.59
2023-04-07T22:23:12.337Z,49.78
2023-04-07T22:25:39.977Z,49.74
2023-04-07T22:28:07.140Z,49.78
2023-04-07T22:30:34.407Z,49.77
2023-04-07T22:33:02.091Z,49.58
2023-04-07T22:35:29.297Z,49.80
2023-04-07T22:37:56.539Z,49.70
2023-04-07T22:40:23.780Z,49.68
2023-04-07T22:42:50.970Z,49.78
2023-04-07T22:45:19.910Z,49.71
2023-04-07T22:47:47.151Z,49.88
2023-04-07T22:50:14.435Z,49.35
2023-04-07T22:52:41.609Z,49.83
2023-04-07T22:55:09.236Z,49.73
2023-04-07T22:57:36.392Z,49.86
2023-04-07T23:00:05.067Z,49.83
2023-04-07T23:02:32.399Z,49.70
2023-04-07T23:04:59.645Z,49.85
2023-04-07T23:07:27.026Z,49.95
2023-04-07T23:09:54.214Z,49.68
2023-04-07T23:12:21.613Z,49.60
2023-04-07T23:14:48.796Z,49.82
2023-04-07T23:17:15.968Z,49.98
2023-04-07T23:19:43.131Z,50.15
2023-04-07T23:22:10.293Z,49.75
2023-04-07T23:24:37.599Z,50.17
2023-04-07T23:27:04.923Z,49.97
2023-04-07T23:29:32.158Z,50.26
2023-04-07T23:31:59.366Z,50.19
2023-04-07T23:34:26.558Z,50.16
2023-04-07T23:36:53.681Z,50.07
2023-04-07T23:39:20.796Z,50.02
2023-04-07T23:41:48.019Z,49.82
2023-04-07T23:44:15.205Z,49.76
2023-04-07T23:46:42.338Z,49.82
2023-04-07T23:49:09.503Z,50.39
2023-04-07T23:51:36.587Z,50.25
2023-04-07T23:54:03.803Z,49.97
2023-04-07T23:56:32.500Z,50.15
2023-04-07T23:58:59.669Z,50.11
